KRID/RID METAR and TAF weather

Enter ICAO airport designator
Station Type Date Time Source
KRID METAR 2019/02/20 06:55 UTC NOAA

KRID 200655Z AUTO 08009KT 1 1/4SM SN OVC008 M02/M02 A3028 RMK AO2


Station Type Date Time Source
KRID Decoded METAR 2019/02/20 06:55 UTC NOAA

Station name not available
Feb 20, 2019 - 01:55 AM EST / 2019.02.20 0655 UTC
Wind: from the E (080 degrees) at 10 MPH (9 KT):0
Visibility: 1 1/4 mile(s):0
Sky conditions: overcast
Weather: snow
Temperature: 28 F (-2 C)
Windchill: 19 F (-7 C):1
Dew Point: 28 F (-2 C)
Relative Humidity: 100%
Pressure (altimeter): 30.28 in. Hg (1025 hPa)
ob: KRID 200655Z AUTO 08009KT 1 1/4SM SN OVC008 M02/M02 A3028 RMK AO2
cycle: 7

Station Type Date Time Source
KRID TAF UTC NOAA

Error!


Example: see airport list